METAR LDSP 260930Z 12007KT 9999 BKN055 20/13 Q1015 NOSIG=
METAR LDSP 260900Z 10006KT 070V140 9999 SCT060 21/13 Q1015 NOSIG=
METAR LDSP 260830Z 08005KT 050V130 9999 FEW050 20/12 Q1015 NOSIG=
METAR LDSP 260800Z 10003KT 050V160 9999 FEW055 20/12 Q1015 NOSIG=
METAR LDSP 260730Z VRB01KT 9999 BKN055 20/12 Q1015 NOSIG=
METAR LDSP 260700Z 03004KT 360V070 9999 BKN055 20/12 Q1014 NOSIG=
METAR LDSP 260630Z VRB01KT 9999 BKN055 19/13 Q1015 NOSIG=
METAR LDSP 260600Z VRB01KT 9999 BKN055 18/13 Q1015 NOSIG=
METAR LDSP 260530Z VRB02KT 9999 FEW055 18/13 Q1014 NOSIG=
METAR LDSP 260500Z 11003KT CAVOK 17/12 Q1014 NOSIG=
METAR LDSP 260430Z 02004KT 350V070 CAVOK 17/12 Q1014 NOSIG=
METAR LDSP 260400Z 03004KT 360V110 CAVOK 16/12 Q1014 NOSIG=
METAR LDSP 260330Z AUTO 05003KT 360V090 CAVOK 16/12 Q1014 NOSIG=
METAR LDSP 260300Z AUTO 34005KT CAVOK 17/11 Q1014 NOSIG=
METAR LDSP 260230Z AUTO 36005KT CAVOK 17/12 Q1014 NOSIG=
METAR LDSP 260200Z AUTO 36006KT CAVOK 16/12 Q1014 NOSIG=
METAR LDSP 260130Z AUTO 06003KT 030V090 CAVOK 15/13 Q1014=
METAR LDSP 260100Z AUTO 11003KT CAVOK 15/13 Q1014=
METAR LDSP 260030Z AUTO 01004KT CAVOK 16/13 Q1015=
METAR LDSP 260000Z AUTO 04003KT 330V100 CAVOK 16/13 Q1015=
METAR LDSP 252330Z AUTO 34005KT CAVOK 17/13 Q1015=
METAR LDSP 252300Z AUTO 35005KT CAVOK 17/13 Q1016=
METAR LDSP 252230Z 35005KT CAVOK 16/13 Q1016 NOSIG=
METAR LDSP 252200Z 02003KT 340V040 CAVOK 17/13 Q1016 NOSIG=
METAR LDSP 252130Z 35005KT CAVOK 17/12 Q1016 NOSIG=
METAR LDSP 252100Z VRB02KT CAVOK 16/13 Q1016 NOSIG=
METAR LDSP 252030Z 34005KT 320V020 CAVOK 17/12 Q1015 NOSIG=
METAR LDSP 252000Z VRB03KT CAVOK 17/12 Q1015 NOSIG=
METAR LDSP 251930Z VRB03KT CAVOK 18/13 Q1015 NOSIG=
METAR LDSP 251900Z VRB02KT CAVOK 18/13 Q1015 NOSIG=
METAR LDSP 251830Z VRB01KT CAVOK 19/13 Q1015 NOSIG=
METAR LDSP 251800Z VRB01KT CAVOK 20/13 Q1014 NOSIG=
METAR LDSP 251730Z VRB01KT CAVOK 20/14 Q1015 NOSIG=
METAR LDSP 251700Z 26005KT 230V300 CAVOK 20/13 Q1014 NOSIG=
METAR LDSP 251630Z 25006KT 220V290 CAVOK 20/14 Q1014 NOSIG=
METAR LDSP 251600Z 23005KT 190V280 CAVOK 21/13 Q1014 NOSIG=
METAR LDSP 251530Z 24006KT 210V270 CAVOK 21/14 Q1014 TEMPO TL1700 23007KT=
METAR LDSP 251500Z 23008KT CAVOK 21/13 Q1014 NOSIG=
METAR LDSP 251430Z 23005KT 180V290 CAVOK 22/13 Q1014 TEMPO 23007KT=
METAR LDSP 251400Z 20005KT 160V250 CAVOK 22/14 Q1015 BECMG 23007KT=
METAR LDSP 251330Z 20009KT 9999 FEW060 21/14 Q1015 NOSIG=
METAR LDSP 251300Z 24012KT 9999 FEW060 23/15 Q1015 NOSIG=
METAR LDSP 251230Z 23010KT 9999 FEW060 22/15 Q1015 NOSIG=
METAR LDSP 251200Z 23009KT CAVOK 23/16 Q1015 NOSIG=
METAR LDSP 251130Z 22008KT 190V310 CAVOK 22/15 Q1015 NOSIG=
METAR LDSP 251100Z 11007KT 070V140 CAVOK 23/15 Q1015 NOSIG=
METAR LDSP 251030Z 11007KT CAVOK 23/14 Q1015 NOSIG=
METAR LDSP 251000Z 09008KT CAVOK 22/13 Q1015 NOSIG=
METAR LDSP 250930Z 09007KT 060V130 CAVOK 22/13 Q1015 NOSIG=
METAR LDSP 250900Z 10006KT 060V130 CAVOK 22/13 Q1015 NOSIG=
METAR LDSP 250830Z 11006KT 080V150 CAVOK 22/13 Q1015 NOSIG=
METAR LDSP 250800Z VRB03KT CAVOK 21/14 Q1015 NOSIG=
METAR LDSP 250730Z 11004KT 070V160 CAVOK 20/13 Q1015 NOSIG=
METAR LDSP 250700Z 08004KT 030V130 CAVOK 20/13 Q1015 NOSIG=
METAR LDSP 250630Z 08005KT 060V120 CAVOK 20/12 Q1015 NOSIG=
METAR LDSP 250600Z 05004KT 030V090 CAVOK 19/12 Q1015 NOSIG=
METAR LDSP 250530Z VRB02KT CAVOK 19/12 Q1014 NOSIG=
METAR LDSP 250500Z 36005KT CAVOK 17/12 Q1014 NOSIG=
METAR LDSP 250430Z 02004KT 350V050 CAVOK 16/11 Q1013 NOSIG=
METAR LDSP 250400Z 01004KT CAVOK 14/11 Q1013 NOSIG=
METAR LDSP 250330Z AUTO VRB01KT CAVOK 14/11 Q1013 NOSIG=
METAR LDSP 250300Z AUTO 34006KT CAVOK 15/11 Q1012 NOSIG=
METAR LDSP 250230Z AUTO 01004KT CAVOK 15/12 Q1012 NOSIG=
METAR LDSP 250200Z AUTO VRB04KT CAVOK 16/11 Q1012 NOSIG=
METAR LDSP 250130Z AUTO 32006KT 300V360 CAVOK 17/11 Q1012=
METAR LDSP 250100Z AUTO 33005KT CAVOK 16/11 Q1012=
METAR LDSP 250030Z AUTO 32003KT CAVOK 16/11 Q1012=
METAR LDSP 250000Z AUTO VRB03KT CAVOK 17/11 Q1013=
METAR LDSP 242330Z AUTO 32007KT CAVOK 17/11 Q1013=
METAR LDSP 242300Z AUTO 35007KT CAVOK 17/11 Q1013=
METAR LDSP 242230Z AUTO VRB02KT CAVOK 17/11 Q1013=
METAR LDSP 242200Z AUTO VRB02KT CAVOK 17/11 Q1012=